Time;durP1;ratioP1;P1;durP2;ratioP2;P2;SDS_P1;SDS_P2;PMS_P1;PMS_P2;Temp;Humidity;BMP_temperature;BMP_pressure;BME280_temperature;BME280_humidity;BME280_pressure;Samples;Min_cycle;Max_cycle;Signal;HPM_P1;HPM_P2
2023/10/06 00:00:48;;;;;;;2.53;0.40;;;24.50;91.40;;;;;;4973124;28;20171;-69
2023/10/06 00:03:16;;;;;;;2.60;0.70;;;24.70;90.10;;;;;;4988364;28;20290;-69
2023/10/06 00:05:44;;;;;;;0.90;0.50;;;24.80;86.70;;;;;;4977802;28;20215;-69
2023/10/06 00:08:16;;;;;;;2.13;0.80;;;25.00;92.50;;;;;;4973020;28;20187;-69
2023/10/06 00:10:51;;;;;;;1.27;0.50;;;24.80;86.80;;;;;;4979543;28;20237;-69
2023/10/06 00:13:31;;;;;;;2.63;0.57;;;25.00;88.80;;;;;;4977931;28;20189;-68
2023/10/06 00:16:00;;;;;;;2.77;0.50;;;25.00;86.50;;;;;;4992615;28;20183;-71
2023/10/06 00:18:29;;;;;;;2.47;0.77;;;25.10;89.20;;;;;;4985706;28;20180;-69
2023/10/06 00:21:04;;;;;;;0.67;0.50;;;25.70;88.20;;;;;;4973170;28;20191;-69
2023/10/06 00:23:35;;;;;;;2.57;0.60;;;26.20;80.90;;;;;;4970520;28;20669;-69
2023/10/06 00:26:04;;;;;;;2.23;0.50;;;26.10;72.30;;;;;;4974048;28;20226;-70
2023/10/06 00:28:32;;;;;;;1.23;0.77;;;26.00;77.50;;;;;;4977704;28;20187;-69
2023/10/06 00:31:09;;;;;;;2.97;0.50;;;25.80;74.90;;;;;;4979576;28;20231;-69
2023/10/06 00:33:41;;;;;;;0.70;0.40;;;26.20;69.80;;;;;;4974169;28;20187;-69
2023/10/06 00:36:15;;;;;;;1.47;0.50;;;26.10;75.20;;;;;;4971307;28;20179;-67
2023/10/06 00:38:47;;;;;;;;;;;26.30;66.60;;;;;;4983976;28;20476;-68
2023/10/06 00:41:17;;;;;;;;;;;26.00;71.70;;;;;;4990990;28;20173;-68
2023/10/06 00:43:45;;;;;;;;;;;25.50;66.80;;;;;;4991353;28;20240;-68
2023/10/06 00:46:16;;;;;;;;;;;25.80;63.10;;;;;;4990579;28;20205;-68
2023/10/06 00:48:44;;;;;;;;;;;26.40;70.80;;;;;;4988007;28;20290;-71
2023/10/06 00:51:19;;;;;;;;;;;27.10;72.70;;;;;;4979506;28;20259;-71
2023/10/06 00:53:52;;;;;;;1.03;0.20;;;27.70;69.80;;;;;;4966082;28;20186;-71
2023/10/06 00:56:23;;;;;;;0.37;0.23;;;27.70;53.60;;;;;;4981097;28;20189;-70
2023/10/06 00:58:51;;;;;;;0.80;0.40;;;27.60;52.10;;;;;;4997773;28;20194;-70
2023/10/06 01:01:19;;;;;;;;;;;27.50;49.60;;;;;;4997895;28;20192;-71
2023/10/06 01:04:00;;;;;;;;;;;27.70;50.60;;;;;;4998420;28;20131;-70
2023/10/06 01:06:33;;;;;;;;;;;26.90;51.60;;;;;;4998258;28;20178;-69
2023/10/06 01:09:14;;;;;;;;;;;27.00;50.00;;;;;;4997476;28;20310;-70
2023/10/06 01:11:43;;;;;;;;;;;27.50;50.40;;;;;;4979224;28;20175;-69
2023/10/06 01:14:11;;;;;;;;;;;27.90;48.60;;;;;;4978598;28;20170;-70
2023/10/06 01:16:39;;;;;;;;;;;28.60;52.30;;;;;;4979069;28;20237;-69
2023/10/06 01:19:16;;;;;;;;;;;28.90;51.90;;;;;;4986750;28;20190;-70
2023/10/06 01:21:47;;;;;;;;;;;29.20;46.50;;;;;;4998171;28;20163;-71
2023/10/06 01:24:35;;;;;;;;;;;29.30;42.40;;;;;;4998375;28;20298;-71
2023/10/06 01:27:05;;;;;;;;;;;27.90;42.50;;;;;;4998376;28;20180;-70
2023/10/06 01:29:35;;;;;;;0.90;0.33;;;26.70;47.10;;;;;;4987710;28;20181;-71
2023/10/06 01:32:08;;;;;;;;;;;26.10;49.60;;;;;;4997989;28;20202;-70
2023/10/06 01:34:38;;;;;;;;;;;25.80;44.90;;;;;;4998240;28;20156;-71
2023/10/06 01:37:06;;;;;;;;;;;25.60;48.10;;;;;;4997601;28;20538;-69
2023/10/06 01:39:35;;;;;;;;;;;25.30;48.90;;;;;;4992510;28;20527;-70
2023/10/06 01:42:07;;;;;;;;;;;26.00;56.00;;;;;;4978591;28;20170;-70
2023/10/06 01:44:34;;;;;;;;;;;27.10;46.20;;;;;;4977471;28;20650;-71
2023/10/06 01:47:04;;;;;;;;;;;27.10;48.90;;;;;;4978228;28;20216;-69
2023/10/06 01:49:33;;;;;;;;;;;26.80;49.50;;;;;;4978692;28;20157;-70
2023/10/06 01:52:09;;;;;;;;;;;26.00;53.90;;;;;;4979370;28;20236;-70
2023/10/06 01:54:36;;;;;;;;;;;25.40;55.10;;;;;;4997452;28;20157;-71
2023/10/06 02:00:14;;;;;;;;;;;24.60;58.90;;;;;;4984510;28;20191;-72
2023/10/06 02:02:41;;;;;;;;;;;23.90;61.60;;;;;;4977161;28;20047;-70
2023/10/06 02:05:12;;;;;;;;;;;23.90;62.40;;;;;;4976311;28;20558;-70
2023/10/06 02:07:40;;;;;;;;;;;23.60;63.90;;;;;;4974691;28;20568;-72
2023/10/06 02:10:13;;;;;;;;;;;23.30;70.00;;;;;;4986802;28;20185;-72
2023/10/06 02:12:40;;;;;;;;;;;22.80;71.70;;;;;;4975418;28;20166;-70
2023/10/06 02:15:10;;;;;;;;;;;22.40;72.60;;;;;;4974705;28;20155;-71
2023/10/06 02:17:41;;;;;;;;;;;22.40;76.60;;;;;;4975219;28;20232;-71
2023/10/06 02:22:53;;;;;;;;;;;22.00;80.80;;;;;;4990660;28;20213;-71
2023/10/06 02:28:23;;;;;;;;;;;21.90;79.00;;;;;;4986910;28;20201;-71
2023/10/06 02:30:51;;;;;;;;;;;21.90;84.10;;;;;;4977159;28;20320;-70
2023/10/06 02:33:18;;;;;;;;;;;;;;;;;;4979654;28;20538;-70
2023/10/06 02:35:46;;;;;;;;;;;21.50;73.80;;;;;;4993847;28;20282;-70
2023/10/06 02:38:13;;;;;;;;;;;21.40;80.20;;;;;;4994432;28;20157;-70
2023/10/06 02:40:45;;;;;;;;;;;21.40;86.90;;;;;;4994149;28;20200;-70
2023/10/06 02:43:20;;;;;;;;;;;21.50;88.70;;;;;;4989935;28;20640;-70
2023/10/06 02:45:47;;;;;;;;;;;21.30;92.10;;;;;;4993004;28;20600;-70
2023/10/06 02:48:18;;;;;;;;;;;21.40;94.10;;;;;;4974779;28;20185;-70
2023/10/06 02:50:49;;;;;;;;;;;21.80;97.60;;;;;;4976882;28;20647;-71
2023/10/06 02:53:20;;;;;;;;;;;22.10;99.90;;;;;;4994054;28;20195;-70
2023/10/06 02:55:55;;;;;;;;;;;22.10;99.90;;;;;;4993884;28;20569;-70
2023/10/06 02:58:30;;;;;;;;;;;22.00;99.90;;;;;;4980271;28;20196;-71
2023/10/06 03:00:57;;;;;;;;;;;22.80;99.40;;;;;;4973476;28;20234;-70
2023/10/06 03:03:27;;;;;;;;;;;24.00;98.60;;;;;;4974039;28;20647;-70
2023/10/06 03:05:55;;;;;;;;;;;24.30;94.60;;;;;;4974381;28;20894;-70
2023/10/06 03:08:27;;;;;;;;;;;24.10;93.90;;;;;;4988352;28;20159;-70
2023/10/06 03:10:54;;;;;;;;;;;23.60;99.00;;;;;;4973827;28;20189;-70
2023/10/06 03:16:25;;;;;;;;;;;23.50;98.00;;;;;;4972418;28;20192;-71
2023/10/06 03:18:52;;;;;;;;;;;23.10;99.20;;;;;;4991509;28;20603;-71
2023/10/06 03:21:19;;;;;;;;;;;22.80;99.70;;;;;;4980768;28;20281;-70
2023/10/06 03:23:47;;;;;;;;;;;22.40;99.90;;;;;;4974321;28;20647;-71
2023/10/06 03:28:53;;;;;;;;;;;22.10;99.90;;;;;;4990750;28;20169;-70
2023/10/06 03:33:47;;;;;;;;;;;22.00;99.90;;;;;;4977595;28;20641;-70
2023/10/06 03:36:16;;;;;;;;;;;22.00;99.90;;;;;;4973583;28;20269;-69
2023/10/06 03:38:52;;;;;;;;;;;21.90;99.90;;;;;;4973140;28;20626;-71
2023/10/06 03:41:19;;;;;;;;;;;21.80;99.90;;;;;;4973408;28;20677;-69
2023/10/06 03:43:55;;;;;;;;;;;21.70;99.90;;;;;;4956088;28;20149;-69
2023/10/06 03:46:24;;;;;;;;;;;21.20;99.90;;;;;;4992860;28;20240;-69
2023/10/06 03:52:09;;;;;;;;;;;20.80;99.90;;;;;;4951520;29;20674;-69
2023/10/06 03:54:36;;;;;;;;;;;21.60;99.90;;;;;;4947342;29;20244;-72
2023/10/06 03:57:04;;;;;;;;;;;21.50;99.90;;;;;;4916076;29;20179;-70
2023/10/06 03:59:31;;;;;;;;;;;22.30;99.90;;;;;;4932577;29;20191;-71
2023/10/06 04:01:57;;;;;;;;;;;22.20;99.90;;;;;;4932031;29;20192;-71
2023/10/06 04:04:26;;;;;;;;;;;21.80;99.90;;;;;;4933325;29;19969;-71
2023/10/06 04:06:56;;;;;;;;;;;21.80;99.90;;;;;;4951529;28;20156;-71
2023/10/06 04:09:30;;;;;;;;;;;22.00;99.90;;;;;;4951227;29;25073;-70
2023/10/06 04:12:00;;;;;;;5.73;1.70;;;21.70;99.90;;;;;;4951187;29;20197;-70
2023/10/06 04:14:31;;;;;;;6.50;1.77;;;21.30;99.90;;;;;;4951172;29;20218;-69
2023/10/06 04:17:02;;;;;;;8.40;2.33;;;21.00;99.90;;;;;;4932485;29;20235;-70
2023/10/06 04:19:29;;;;;;;5.23;1.70;;;20.80;99.90;;;;;;4945223;29;20230;-72
2023/10/06 04:21:57;;;;;;;8.07;1.77;;;20.90;99.90;;;;;;4951595;29;20203;-70
2023/10/06 04:24:24;;;;;;;6.27;2.13;;;21.00;99.90;;;;;;4951350;28;20662;-70
2023/10/06 04:26:51;;;;;;;6.63;2.03;;;20.80;99.90;;;;;;4931186;28;20196;-70
2023/10/06 04:29:19;;;;;;;11.90;2.00;;;20.70;99.90;;;;;;4931663;29;20184;-70
2023/10/06 04:31:46;;;;;;;4.37;1.60;;;20.40;99.90;;;;;;4932087;29;20252;-69
2023/10/06 04:34:14;;;;;;;5.17;1.60;;;20.30;99.90;;;;;;4931520;29;20204;-70
2023/10/06 04:36:42;;;;;;;10.30;1.97;;;20.10;99.90;;;;;;4948207;29;20210;-70
2023/10/06 04:39:15;;;;;;;8.47;1.70;;;20.10;99.90;;;;;;4935092;29;20207;-69
2023/10/06 04:41:43;;;;;;;5.07;1.73;;;19.90;99.90;;;;;;4935611;29;20192;-69
2023/10/06 04:44:10;;;;;;;6.47;1.70;;;19.80;99.90;;;;;;4951039;29;20200;-71
2023/10/06 04:46:39;;;;;;;11.20;2.37;;;19.60;99.90;;;;;;4937062;29;20295;-68
2023/10/06 04:49:07;;;;;;;6.07;2.43;;;19.30;99.90;;;;;;4935454;29;20202;-68
2023/10/06 04:51:36;;;;;;;8.07;1.70;;;19.10;99.90;;;;;;4922563;29;20255;-68
2023/10/06 04:54:07;;;;;;;6.63;1.63;;;19.10;99.90;;;;;;4937753;28;20186;-69
2023/10/06 04:56:35;;;;;;;5.10;1.67;;;19.10;99.90;;;;;;4981438;28;20187;-69
2023/10/06 04:59:05;;;;;;;11.30;1.80;;;19.10;99.90;;;;;;4977112;28;20195;-69
2023/10/06 05:01:34;;;;;;;7.90;2.70;;;19.20;99.90;;;;;;4972360;28;20241;-69
2023/10/06 05:04:06;;;;;;;8.80;2.20;;;19.00;99.90;;;;;;4972144;28;20202;-69
2023/10/06 05:06:34;;;;;;;9.87;2.37;;;19.00;99.90;;;;;;4956398;28;20726;-69
2023/10/06 05:09:03;;;;;;;9.77;2.40;;;19.10;99.90;;;;;;4986870;28;20178;-69
2023/10/06 05:11:32;;;;;;;6.57;2.20;;;19.00;99.90;;;;;;4979734;28;20215;-70
2023/10/06 05:14:01;;;;;;;7.57;1.80;;;18.90;99.90;;;;;;4976518;28;20241;-69
2023/10/06 05:16:28;;;;;;;7.07;2.57;;;18.90;99.90;;;;;;4983219;28;20179;-69
2023/10/06 05:18:56;;;;;;;6.03;2.03;;;18.80;99.90;;;;;;4974624;28;20191;-69
2023/10/06 05:21:23;;;;;;;11.73;2.40;;;18.90;99.90;;;;;;4971581;28;20246;-69
2023/10/06 05:23:53;;;;;;;5.73;2.07;;;18.80;99.90;;;;;;4973885;28;20202;-69
2023/10/06 05:26:20;;;;;;;7.77;2.63;;;19.00;99.90;;;;;;4956668;28;20253;-69
2023/10/06 05:28:50;;;;;;;14.13;2.80;;;18.90;99.90;;;;;;4974096;28;20190;-70
2023/10/06 05:31:19;;;;;;;9.07;2.50;;;18.90;99.90;;;;;;4973518;28;20650;-69
2023/10/06 05:33:46;;;;;;;8.27;2.20;;;18.60;99.90;;;;;;4973750;28;20574;-69
2023/10/06 05:36:14;;;;;;;8.00;2.30;;;18.50;99.90;;;;;;4973985;28;20183;-70
2023/10/06 05:38:45;;;;;;;7.43;2.73;;;18.50;99.90;;;;;;4972989;28;20216;-69
2023/10/06 05:41:15;;;;;;;6.40;2.27;;;18.30;99.90;;;;;;4977490;28;20183;-69
2023/10/06 05:47:08;;;;;;;7.83;2.67;;;18.30;99.90;;;;;;4977013;28;20204;-69
2023/10/06 05:49:45;;;;;;;7.83;2.03;;;18.20;99.90;;;;;;4961323;28;20258;-69
2023/10/06 05:52:16;;;;;;;6.93;2.50;;;18.20;99.90;;;;;;4977166;28;20242;-70
2023/10/06 05:54:44;;;;;;;4.77;2.30;;;18.30;99.90;;;;;;4977120;28;20191;-68
2023/10/06 05:57:12;;;;;;;5.73;2.00;;;18.30;99.90;;;;;;4959872;28;20199;-69
2023/10/06 05:59:39;;;;;;;8.93;1.60;;;18.20;99.90;;;;;;4977145;28;20221;-69
2023/10/06 06:02:09;;;;;;;6.20;1.80;;;18.00;99.90;;;;;;4976889;28;20242;-69
2023/10/06 06:04:38;;;;;;;4.20;1.90;;;17.80;99.90;;;;;;4990520;28;20182;-69
2023/10/06 06:07:08;;;;;;;8.20;2.23;;;17.70;99.90;;;;;;4992702;28;20187;-68
2023/10/06 06:09:35;;;;;;;10.23;2.13;;;17.70;99.90;;;;;;4976591;28;20227;-69
2023/10/06 06:12:02;;;;;;;13.27;2.37;;;17.70;99.90;;;;;;4976724;28;20230;-68
2023/10/06 06:14:33;;;;;;;8.20;1.87;;;17.50;99.90;;;;;;4985668;28;20176;-70
2023/10/06 06:17:00;;;;;;;13.43;2.33;;;17.60;99.90;;;;;;4968636;28;20201;-69
2023/10/06 06:19:28;;;;;;;11.33;2.63;;;17.60;99.90;;;;;;4963595;28;20234;-69
2023/10/06 06:21:55;;;;;;;14.43;2.43;;;17.70;99.90;;;;;;4983145;28;20191;-70
2023/10/06 06:24:22;;;;;;;8.87;2.43;;;17.70;99.90;;;;;;4993879;28;20186;-70
2023/10/06 06:26:50;;;;;;;6.40;1.57;;;17.70;99.90;;;;;;4990476;28;20234;-69
2023/10/06 06:29:19;;;;;;;5.87;2.00;;;17.70;99.90;;;;;;4957586;28;20204;-69
2023/10/06 06:31:49;;;;;;;6.20;2.07;;;17.80;99.90;;;;;;4993802;28;20237;-69
2023/10/06 06:34:16;;;;;;;8.23;1.50;;;17.80;99.90;;;;;;4964237;28;20191;-70
2023/10/06 06:36:45;;;;;;;4.90;1.60;;;17.80;99.90;;;;;;4975274;28;20191;-69
2023/10/06 06:39:12;;;;;;;9.37;2.23;;;17.90;99.90;;;;;;4957757;28;20188;-71
2023/10/06 06:41:39;;;;;;;7.30;1.90;;;17.80;99.90;;;;;;4956726;28;20184;-70
2023/10/06 06:44:07;;;;;;;7.90;1.60;;;17.90;99.90;;;;;;4974490;28;20180;-69
2023/10/06 06:46:38;;;;;;;8.53;1.80;;;17.90;99.90;;;;;;4974572;28;20215;-70
2023/10/06 06:49:07;;;;;;;5.53;1.50;;;17.80;99.90;;;;;;4961098;28;20286;-70
2023/10/06 06:51:37;;;;;;;7.10;1.80;;;17.60;99.90;;;;;;4940574;28;20696;-69
2023/10/06 06:54:05;;;;;;;6.90;1.83;;;17.60;99.90;;;;;;4974723;28;20202;-70
2023/10/06 06:56:32;;;;;;;12.60;2.07;;;17.50;99.90;;;;;;4964825;28;20179;-69
2023/10/06 06:59:03;;;;;;;7.70;1.77;;;17.50;99.90;;;;;;4992472;28;20183;-69
2023/10/06 07:01:33;;;;;;;14.27;2.27;;;17.40;99.90;;;;;;4992197;28;20218;-70
2023/10/06 07:04:00;;;;;;;11.17;2.37;;;17.30;99.90;;;;;;4993209;28;20284;-69
2023/10/06 07:06:28;;;;;;;5.47;1.73;;;17.40;99.90;;;;;;4993256;28;20232;-69
2023/10/06 07:08:57;;;;;;;9.07;1.90;;;17.30;99.90;;;;;;4977783;28;20201;-69
2023/10/06 07:11:26;;;;;;;7.20;2.20;;;17.30;99.90;;;;;;4973661;28;20175;-69
2023/10/06 07:13:55;;;;;;;5.93;1.90;;;17.30;99.90;;;;;;4957338;28;20179;-69
2023/10/06 07:16:24;;;;;;;9.97;2.17;;;17.40;99.90;;;;;;4956723;28;20191;-69
2023/10/06 07:18:53;;;;;;;8.20;1.83;;;17.40;99.90;;;;;;4986893;28;20197;-68
2023/10/06 07:21:22;;;;;;;6.13;1.87;;;17.40;99.90;;;;;;4960416;28;20214;-70
2023/10/06 07:23:51;;;;;;;11.83;2.37;;;17.20;99.90;;;;;;4993396;28;20178;-69
2023/10/06 07:26:22;;;;;;;11.43;2.37;;;17.10;99.90;;;;;;4991095;28;20241;-69
2023/10/06 07:28:52;;;;;;;14.50;2.90;;;17.00;99.90;;;;;;4992949;28;20201;-69
2023/10/06 07:31:20;;;;;;;13.33;2.93;;;17.00;99.90;;;;;;4993021;28;20240;-69
2023/10/06 07:33:48;;;;;;;11.20;2.90;;;16.90;99.90;;;;;;4992500;28;20190;-68
2023/10/06 07:36:19;;;;;;;17.67;3.40;;;16.90;99.90;;;;;;4993309;28;20186;-69
2023/10/06 07:38:49;;;;;;;7.23;2.00;;;16.90;99.90;;;;;;4992319;28;20182;-69
2023/10/06 07:41:27;;;;;;;13.47;2.97;;;16.90;99.90;;;;;;4992821;28;20175;-69
2023/10/06 07:43:56;;;;;;;13.80;3.00;;;17.00;99.90;;;;;;4992957;28;20190;-69
2023/10/06 07:46:23;;;;;;;15.67;2.90;;;16.90;99.90;;;;;;4992927;28;20207;-70
2023/10/06 07:48:50;;;;;;;8.20;2.73;;;17.00;99.90;;;;;;4992166;28;20182;-69
2023/10/06 07:51:20;;;;;;;13.53;3.03;;;16.90;99.90;;;;;;4993018;28;20257;-69
2023/10/06 07:53:48;;;;;;;9.97;2.67;;;16.90;99.90;;;;;;4992703;28;20273;-69
2023/10/06 07:56:18;;;;;;;8.80;2.50;;;17.00;99.90;;;;;;4992333;28;20555;-70
2023/10/06 07:58:52;;;;;;;15.73;3.33;;;16.90;99.90;;;;;;4980423;28;20624;-70
2023/10/06 08:01:21;;;;;;;13.47;3.03;;;16.90;99.90;;;;;;4974632;28;20592;-68
2023/10/06 08:03:53;;;;;;;12.30;2.80;;;17.00;99.90;;;;;;4972965;28;20180;-69
2023/10/06 08:06:22;;;;;;;12.17;3.17;;;16.90;99.90;;;;;;4955715;28;20222;-69
2023/10/06 08:08:50;;;;;;;11.63;3.60;;;16.90;99.90;;;;;;4974617;28;20171;-68
2023/10/06 08:11:17;;;;;;;9.37;2.80;;;16.90;99.90;;;;;;4967328;28;20194;-70
2023/10/06 08:13:46;;;;;;;10.57;3.00;;;16.90;99.90;;;;;;4994197;28;20178;-69
2023/10/06 08:16:16;;;;;;;12.73;3.13;;;16.90;99.90;;;;;;4974718;28;20727;-71
2023/10/06 08:18:47;;;;;;;12.33;2.33;;;16.80;99.90;;;;;;4974079;28;20194;-69
2023/10/06 08:21:15;;;;;;;11.53;2.80;;;16.80;99.90;;;;;;4985809;28;20186;-70
2023/10/06 08:23:43;;;;;;;11.47;3.03;;;16.80;99.90;;;;;;4965007;28;20692;-70
2023/10/06 08:26:13;;;;;;;12.20;2.50;;;16.80;99.90;;;;;;4967724;28;20280;-69
2023/10/06 08:28:41;;;;;;;11.27;2.40;;;16.90;99.90;;;;;;4976509;28;20179;-69
2023/10/06 08:31:17;;;;;;;11.60;2.60;;;16.80;99.90;;;;;;4983764;28;20259;-69
2023/10/06 08:33:46;;;;;;;12.07;2.67;;;16.90;99.90;;;;;;4981422;28;20218;-69
2023/10/06 08:36:13;;;;;;;11.57;2.53;;;16.90;99.90;;;;;;4985507;28;20207;-69
2023/10/06 08:38:40;;;;;;;15.70;3.03;;;16.80;99.90;;;;;;4974328;28;20190;-69
2023/10/06 08:41:10;;;;;;;12.13;2.83;;;16.80;99.90;;;;;;4974809;28;20187;-67
2023/10/06 08:43:38;;;;;;;8.80;2.40;;;16.80;99.90;;;;;;4974698;28;20650;-70
2023/10/06 08:46:15;;;;;;;8.60;2.80;;;16.90;99.90;;;;;;4987108;28;20217;-70
2023/10/06 08:48:45;;;;;;;12.43;3.00;;;16.90;99.90;;;;;;4967676;28;20175;-69
2023/10/06 08:51:17;;;;;;;9.47;2.63;;;16.80;99.90;;;;;;4974304;28;20183;-70
2023/10/06 08:53:46;;;;;;;11.37;2.90;;;16.80;99.90;;;;;;4974447;28;20265;-71
2023/10/06 08:56:15;;;;;;;11.07;2.43;;;16.80;99.90;;;;;;4974311;28;20182;-69
2023/10/06 09:02:04;;;;;;;11.33;2.73;;;16.80;99.90;;;;;;4993048;28;20205;-71
2023/10/06 09:04:37;;;;;;;10.77;2.40;;;16.70;99.90;;;;;;4993845;28;20350;-70
2023/10/06 09:07:12;;;;;;;9.13;2.53;;;16.70;99.90;;;;;;4996195;28;20197;-70
2023/10/06 09:09:43;;;;;;;17.67;4.33;;;16.80;99.90;;;;;;4977140;28;20212;-69
2023/10/06 09:12:23;;;;;;;9.10;2.67;;;16.70;99.90;;;;;;4973568;28;20195;-71
2023/10/06 09:14:54;;;;;;;7.60;2.83;;;16.60;99.90;;;;;;4943421;28;20225;-69
2023/10/06 09:17:36;;;;;;;11.03;2.60;;;16.60;99.90;;;;;;4977969;28;20744;-69
2023/10/06 09:20:07;;;;;;;16.87;3.30;;;16.70;99.90;;;;;;4980120;28;20191;-72
2023/10/06 09:22:52;;;;;;;11.43;2.77;;;16.70;99.90;;;;;;4997449;28;20190;-68
2023/10/06 09:25:22;;;;;;;10.63;3.07;;;16.80;99.90;;;;;;4989103;28;20221;-69
2023/10/06 09:28:01;;;;;;;11.17;2.50;;;16.80;99.90;;;;;;4997436;28;20191;-69
2023/10/06 09:30:30;;;;;;;11.27;3.00;;;16.70;99.90;;;;;;4988106;28;20728;-69
2023/10/06 09:33:04;;;;;;;11.20;3.00;;;16.70;99.90;;;;;;4977824;28;20179;-70
2023/10/06 09:35:33;;;;;;;14.23;2.70;;;16.70;99.90;;;;;;4978284;28;20179;-71
2023/10/06 09:38:14;;;;;;;12.60;3.00;;;16.80;99.90;;;;;;4977882;28;20174;-71
2023/10/06 09:40:50;;;;;;;10.83;2.23;;;16.70;99.90;;;;;;4960266;28;20184;-71
2023/10/06 09:43:18;;;;;;;11.63;2.50;;;16.80;99.90;;;;;;4973105;28;20186;-69
2023/10/06 09:45:47;;;;;;;16.27;3.20;;;16.80;99.90;;;;;;4960624;28;20215;-69
2023/10/06 09:48:17;;;;;;;8.53;2.70;;;16.90;99.90;;;;;;4960833;28;20215;-70
2023/10/06 09:50:46;;;;;;;13.50;2.50;;;16.70;99.90;;;;;;4985193;28;20186;-69
2023/10/06 09:53:15;;;;;;;10.83;3.10;;;16.70;99.90;;;;;;4996814;28;20179;-70
2023/10/06 09:55:49;;;;;;;12.03;2.80;;;16.60;99.90;;;;;;4997065;28;20648;-70
2023/10/06 09:58:18;;;;;;;14.67;3.30;;;16.60;99.90;;;;;;4979846;28;20249;-71
2023/10/06 10:00:49;;;;;;;12.17;2.50;;;16.50;99.90;;;;;;4977746;28;20183;-68
2023/10/06 10:03:17;;;;;;;13.07;2.63;;;16.50;99.90;;;;;;4985342;28;20183;-70
2023/10/06 10:05:46;;;;;;;9.70;2.87;;;16.50;99.90;;;;;;4978285;28;20293;-69
2023/10/06 10:08:14;;;;;;;10.00;2.40;;;16.60;99.90;;;;;;4977213;28;20214;-70
2023/10/06 10:10:49;;;;;;;16.67;3.00;;;16.50;99.90;;;;;;4976984;28;20649;-71
2023/10/06 10:13:56;;;;;;;9.73;2.23;;;16.50;99.90;;;;;;4976923;28;20242;-72
2023/10/06 10:16:50;;;;;;;15.20;3.03;;;16.50;99.90;;;;;;4977243;28;20176;-69
2023/10/06 10:19:22;;;;;;;14.90;2.73;;;16.60;99.90;;;;;;4977174;28;20278;-71
2023/10/06 10:21:50;;;;;;;10.17;2.20;;;16.60;99.90;;;;;;4996446;28;20179;-70
2023/10/06 10:24:21;;;;;;;9.10;2.33;;;16.60;99.90;;;;;;5008960;28;20178;-69
2023/10/06 10:26:50;;;;;;;17.50;2.97;;;16.60;99.90;;;;;;5014498;28;20217;-71
2023/10/06 10:29:18;;;;;;;18.83;3.50;;;16.60;99.90;;;;;;4996508;28;20187;-71
2023/10/06 10:32:24;;;;;;;10.77;2.53;;;16.60;99.90;;;;;;4978101;28;20233;-68
2023/10/06 10:35:13;;;;;;;15.23;3.00;;;16.60;99.90;;;;;;4996275;28;20185;-71
2023/10/06 10:38:02;;;;;;;18.00;3.33;;;16.60;99.90;;;;;;4995982;28;20186;-71
2023/10/06 10:40:47;;;;;;;14.80;2.90;;;16.50;99.90;;;;;;4995886;28;20245;-69
2023/10/06 10:43:15;;;;;;;21.57;3.37;;;16.50;99.90;;;;;;4996061;28;20305;-71
2023/10/06 10:45:46;;;;;;;13.50;3.50;;;16.50;99.90;;;;;;4978300;28;20334;-69
2023/10/06 10:48:15;;;;;;;21.50;3.50;;;16.50;99.90;;;;;;4992240;28;20652;-71
2023/10/06 10:51:01;;;;;;;15.27;3.63;;;16.50;99.90;;;;;;4995568;28;20179;-70
2023/10/06 10:53:35;;;;;;;19.30;3.40;;;16.50;99.90;;;;;;4995754;28;20190;-70
2023/10/06 10:56:06;;;;;;;18.53;4.10;;;16.40;99.90;;;;;;4978460;28;20191;-69
2023/10/06 10:58:49;;;;;;;13.63;3.10;;;16.30;99.90;;;;;;4996041;28;20233;-71
2023/10/06 11:01:34;;;;;;;10.27;3.00;;;16.30;99.90;;;;;;4978182;28;20182;-69
2023/10/06 11:04:12;;;;;;;14.67;2.93;;;16.30;99.90;;;;;;4995828;28;20257;-71
2023/10/06 11:06:43;;;;;;;15.47;3.27;;;16.40;99.90;;;;;;4995365;28;20237;-68
2023/10/06 11:12:28;;;;;;;15.07;2.53;;;16.30;99.90;;;;;;4916634;29;20257;-71
2023/10/06 11:15:14;;;;;;;12.67;3.00;;;16.20;99.90;;;;;;4916544;29;20271;-69
2023/10/06 11:17:45;;;;;;;13.43;2.67;;;16.00;99.90;;;;;;4970436;28;20265;-70
2023/10/06 11:20:16;;;;;;;9.33;2.50;;;16.00;99.90;;;;;;4977814;28;20707;-70
2023/10/06 11:22:59;;;;;;;13.73;3.30;;;16.00;99.90;;;;;;4962613;28;20205;-69
2023/10/06 11:25:32;;;;;;;11.83;2.57;;;16.00;99.90;;;;;;4995034;28;20248;-69
2023/10/06 11:28:04;;;;;;;14.13;3.07;;;15.90;99.90;;;;;;4982150;28;20210;-69
2023/10/06 11:30:35;;;;;;;12.43;2.70;;;15.90;99.90;;;;;;4993631;28;20237;-69
2023/10/06 11:33:13;;;;;;;9.37;2.40;;;15.80;99.90;;;;;;4975302;28;20203;-69
2023/10/06 11:35:42;;;;;;;15.50;2.73;;;15.60;99.90;;;;;;4967187;28;20194;-70
2023/10/06 11:38:15;;;;;;;13.57;3.03;;;15.60;99.90;;;;;;4974919;28;20195;-69
2023/10/06 11:40:49;;;;;;;14.07;3.00;;;15.40;99.90;;;;;;4974980;28;20206;-70
2023/10/06 11:43:18;;;;;;;12.20;2.60;;;15.40;99.90;;;;;;4959038;28;20709;-69
2023/10/06 11:45:46;;;;;;;11.43;3.00;;;15.40;99.90;;;;;;4984978;28;20229;-69
2023/10/06 11:48:34;;;;;;;12.47;2.40;;;15.40;99.90;;;;;;4994653;28;20194;-70
2023/10/06 11:51:12;;;;;;;10.03;2.43;;;15.40;99.90;;;;;;4994058;28;20190;-69
2023/10/06 11:53:40;;;;;;;13.23;2.80;;;15.40;99.90;;;;;;4977009;28;20652;-69
2023/10/06 11:56:13;;;;;;;12.13;2.67;;;15.40;99.90;;;;;;4994338;28;20679;-69
2023/10/06 11:58:42;;;;;;;14.73;3.23;;;15.20;99.90;;;;;;4958201;28;20183;-70
2023/10/06 12:01:37;;;;;;;12.43;2.63;;;15.20;99.90;;;;;;4960809;28;20199;-69
2023/10/06 12:04:08;;;;;;;12.10;2.80;;;15.20;99.90;;;;;;4994813;28;20221;-68
2023/10/06 12:06:51;;;;;;;12.67;2.87;;;15.10;99.90;;;;;;4986404;28;20226;-69
2023/10/06 12:09:33;;;;;;;13.07;3.23;;;15.10;99.90;;;;;;4974625;28;20723;-69
2023/10/06 12:12:02;;;;;;;12.30;2.30;;;15.10;99.90;;;;;;4977743;28;20711;-69
2023/10/06 12:14:31;;;;;;;8.00;2.20;;;15.10;99.90;;;;;;4976373;28;20182;-69
2023/10/06 12:16:58;;;;;;;13.63;2.90;;;15.10;99.90;;;;;;4993710;28;20199;-70
2023/10/06 12:19:26;;;;;;;11.50;3.10;;;15.20;99.90;;;;;;4988594;28;20218;-67
2023/10/06 12:21:56;;;;;;;11.17;2.37;;;15.20;99.90;;;;;;4985536;28;20615;-68
2023/10/06 12:24:23;;;;;;;16.57;2.83;;;15.20;99.90;;;;;;4993786;28;20221;-69
2023/10/06 12:26:51;;;;;;;14.23;2.70;;;15.10;99.90;;;;;;4993045;28;20222;-69
2023/10/06 12:29:18;;;;;;;9.20;2.50;;;15.10;99.90;;;;;;4993845;28;20186;-70
2023/10/06 12:31:48;;;;;;;11.30;3.33;;;15.00;99.90;;;;;;4981788;28;20241;-70
2023/10/06 12:34:16;;;;;;;7.80;2.60;;;15.00;99.90;;;;;;4957626;28;20199;-69
2023/10/06 12:36:48;;;;;;;14.23;2.53;;;15.00;99.90;;;;;;4974574;28;20665;-70
2023/10/06 12:39:36;;;;;;;16.30;2.70;;;15.10;99.90;;;;;;4958215;28;20195;-69
2023/10/06 12:42:05;;;;;;;11.77;2.93;;;15.10;99.90;;;;;;4959427;28;20189;-69
2023/10/06 12:44:39;;;;;;;13.20;2.53;;;15.10;99.90;;;;;;4974164;28;20195;-69
2023/10/06 12:47:10;;;;;;;15.60;3.03;;;15.10;99.90;;;;;;4975865;28;20320;-69
2023/10/06 12:49:43;;;;;;;10.60;2.57;;;15.10;99.90;;;;;;4992689;28;20183;-69
2023/10/06 12:52:11;;;;;;;15.03;2.83;;;15.00;99.90;;;;;;4986694;28;20197;-70
2023/10/06 12:54:41;;;;;;;12.73;2.30;;;15.00;99.90;;;;;;4974978;28;20195;-70
2023/10/06 12:57:08;;;;;;;16.23;2.17;;;15.00;99.90;;;;;;4975680;28;20186;-69
2023/10/06 12:59:35;;;;;;;14.27;2.60;;;15.00;99.90;;;;;;4993444;28;20188;-69
2023/10/06 13:02:04;;;;;;;10.73;2.00;;;15.00;99.90;;;;;;4993819;28;20635;-69
2023/10/06 13:04:32;;;;;;;12.00;2.20;;;15.00;99.90;;;;;;4993807;28;20194;-69
2023/10/06 13:06:59;;;;;;;13.67;2.10;;;15.00;99.90;;;;;;4983674;28;20210;-70
2023/10/06 13:09:27;;;;;;;12.67;3.13;;;15.00;99.90;;;;;;4974218;28;20183;-70
2023/10/06 13:11:57;;;;;;;10.43;2.50;;;15.10;99.90;;;;;;4974063;28;20241;-70
2023/10/06 13:14:28;;;;;;;17.77;3.17;;;15.10;99.90;;;;;;4985587;28;20233;-70
2023/10/06 13:16:56;;;;;;;15.83;2.80;;;15.10;99.90;;;;;;4976313;28;20198;-69
2023/10/06 13:19:23;;;;;;;13.33;3.20;;;15.20;99.90;;;;;;4993184;28;20557;-69
2023/10/06 13:21:52;;;;;;;13.20;2.83;;;15.10;99.90;;;;;;4989913;28;20183;-69
2023/10/06 13:24:20;;;;;;;16.50;2.37;;;15.10;99.90;;;;;;4974143;28;20206;-69
2023/10/06 13:26:51;;;;;;;10.53;2.53;;;15.20;99.90;;;;;;4983715;28;20296;-69
2023/10/06 13:29:23;;;;;;;15.90;2.70;;;15.20;99.90;;;;;;4993405;28;20555;-69
2023/10/06 13:31:50;;;;;;;11.23;2.80;;;15.10;99.90;;;;;;4987314;28;20720;-69
2023/10/06 13:34:18;;;;;;;11.47;2.33;;;15.20;99.90;;;;;;4973913;28;20207;-70
2023/10/06 13:36:47;;;;;;;10.43;2.43;;;15.10;99.90;;;;;;4973917;28;20190;-69
2023/10/06 13:39:24;;;;;;;17.63;2.97;;;15.10;99.90;;;;;;4973492;28;20195;-69
2023/10/06 13:41:51;;;;;;;8.37;2.27;;;15.10;99.90;;;;;;4973775;28;20545;-68
2023/10/06 13:44:20;;;;;;;12.07;2.47;;;15.10;99.90;;;;;;4956496;28;20572;-70
2023/10/06 13:46:52;;;;;;;14.90;3.00;;;15.10;99.90;;;;;;4957261;28;20222;-70
2023/10/06 13:49:20;;;;;;;18.27;3.60;;;15.20;99.90;;;;;;4987496;28;20191;-69